Hundvaag 1 weather for Nov 1989
Month no. 29
Obs.
Da.
Temp. Dew Point Precip. Wind
Speed
Wind gusts Cloud cover Press. Humidity Wind dir. Sunny OPT
01.11.1989 7,2   7,0             1  
02.11.1989 9,1   6,8             1  
03.11.1989 10,2   2,6             1  
04.11.1989 6,7   13,0             1  
05.11.1989 7,8   40,2                
06.11.1989 6,0   11,1             1  
07.11.1989 5,8   3,0             1  
08.11.1989 6,5   1,2                
09.11.1989 8,5   3,4                
10.11.1989 8,1   9,1                
11.11.1989 10,5   18,5                
12.11.1989 9,8   0,0                
13.11.1989 5,5   0,8                
14.11.1989 9,8   1,2                
15.11.1989 5,8   1,8                
16.11.1989 1,5   0,0                
17.11.1989 1,1   0,0                
18.11.1989 5,0   0,0                
19.11.1989 7,3   0,0             1  
20.11.1989 3,6   0,0                
21.11.1989 2,9   2,2                
22.11.1989 2,9   1,2                
23.11.1989 1,9   0,2                
24.11.1989 -1,7   2,0                
25.11.1989 -2,7   0,0                
26.11.1989 4,8   10,0             1  
27.11.1989 6,9   0,0                
28.11.1989 0,0   0,1                
29.11.1989 3,9   1,9                
30.11.1989 0,1   0,9                
                       
Avrg/Sum 5,2   138,1             8